Time;durP1;ratioP1;P1;durP2;ratioP2;P2;SDS_P1;SDS_P2;PMS_P1;PMS_P2;Temp;Humidity;BMP_temperature;BMP_pressure;BME280_temperature;BME280_humidity;BME280_pressure;Samples;Min_cycle;Max_cycle;Signal;HPM_P1;HPM_P2
2022/10/21 00:01:09;;;;;;;43.50;18.17;;;11.80;99.90;;;;;;5158499;27;20087;-77
2022/10/21 00:03:35;;;;;;;45.28;19.45;;;11.80;99.90;;;;;;5123619;27;20038;-80
2022/10/21 00:06:05;;;;;;;49.10;18.63;;;11.90;99.90;;;;;;5148310;27;20040;-76
2022/10/21 00:08:31;;;;;;;45.85;18.23;;;11.80;99.90;;;;;;5132808;27;20403;-73
2022/10/21 00:10:59;;;;;;;48.50;19.55;;;11.80;99.90;;;;;;5166952;27;20043;-74
2022/10/21 00:13:27;;;;;;;48.33;18.42;;;11.80;99.90;;;;;;5165981;27;20039;-76
2022/10/21 00:16:02;;;;;;;44.95;16.52;;;11.80;99.90;;;;;;5147810;27;20051;-74
2022/10/21 00:18:29;;;;;;;47.47;18.55;;;11.80;99.90;;;;;;5128565;27;20056;-77
2022/10/21 00:20:54;;;;;;;42.55;17.95;;;11.80;99.90;;;;;;5163589;27;20183;-76
2022/10/21 00:23:20;;;;;;;47.80;17.83;;;11.80;99.90;;;;;;5125117;27;20168;-74
2022/10/21 00:25:46;;;;;;;51.35;18.17;;;11.80;99.90;;;;;;5167075;27;20054;-77
2022/10/21 00:28:12;;;;;;;49.35;17.95;;;11.70;99.90;;;;;;5170055;27;20046;-79
2022/10/21 00:30:43;;;;;;;42.30;17.60;;;11.80;99.90;;;;;;5153885;27;20053;-79
2022/10/21 00:33:10;;;;;;;48.75;17.77;;;11.70;99.90;;;;;;5155091;27;20049;-75
2022/10/21 00:35:35;;;;;;;40.20;18.02;;;11.80;99.90;;;;;;5151692;27;20364;-81
2022/10/21 00:38:01;;;;;;;38.78;16.27;;;11.80;99.90;;;;;;5142158;27;20054;-73
2022/10/21 00:40:27;;;;;;;42.53;17.58;;;11.80;99.90;;;;;;5167502;27;20043;-75
2022/10/21 00:42:53;;;;;;;43.45;17.02;;;11.80;99.90;;;;;;5166979;27;20130;-74
2022/10/21 00:45:23;;;;;;;39.60;16.90;;;11.80;99.90;;;;;;5143244;27;20053;-73
2022/10/21 00:48:11;;;;;;;45.95;17.20;;;11.80;99.90;;;;;;5161079;27;20035;-75
2022/10/21 00:50:47;;;;;;;47.53;17.80;;;11.80;99.90;;;;;;5110266;27;20545;-73
2022/10/21 00:53:14;;;;;;;44.15;17.15;;;11.80;99.90;;;;;;5163978;27;20042;-75
2022/10/21 00:55:48;;;;;;;45.53;18.15;;;11.70;99.90;;;;;;5148468;27;20035;-77
2022/10/21 00:58:15;;;;;;;44.88;17.65;;;11.70;99.90;;;;;;5165440;27;20047;-76
2022/10/21 01:00:41;;;;;;;43.03;17.23;;;11.70;99.90;;;;;;5124567;27;20047;-76
2022/10/21 01:03:07;;;;;;;46.38;18.70;;;11.70;99.90;;;;;;5122101;27;20059;-75
2022/10/21 01:05:36;;;;;;;45.03;18.65;;;11.60;99.90;;;;;;5158205;27;20057;-74
2022/10/21 01:08:02;;;;;;;42.05;17.73;;;11.60;99.90;;;;;;5125139;27;20041;-75
2022/10/21 01:10:28;;;;;;;48.67;17.38;;;11.60;99.90;;;;;;5157197;27;20046;-75
2022/10/21 01:13:17;;;;;;;42.25;17.02;;;11.60;99.90;;;;;;5122445;27;20043;-75
2022/10/21 01:15:53;;;;;;;44.92;17.02;;;11.70;99.90;;;;;;5128239;27;20352;-76
2022/10/21 01:19:07;;;;;;;43.22;17.70;;;11.70;99.90;;;;;;5151694;27;20106;-75
2022/10/21 01:21:54;;;;;;;47.13;17.52;;;11.70;99.90;;;;;;5169492;27;20134;-73
2022/10/21 01:24:19;;;;;;;46.10;18.02;;;11.70;99.90;;;;;;5128012;27;20466;-77
2022/10/21 01:27:23;;;;;;;38.85;16.60;;;11.70;99.90;;;;;;5142970;27;20082;-73
2022/10/21 01:29:49;;;;;;;45.08;17.00;;;11.70;99.90;;;;;;5044415;28;20486;-73
2022/10/21 01:32:35;;;;;;;44.72;17.48;;;11.80;99.90;;;;;;5145577;27;20085;-73
2022/10/21 01:35:06;;;;;;;51.28;17.45;;;11.80;99.90;;;;;;5162021;27;20130;-74
2022/10/21 01:37:45;;;;;;;52.50;17.52;;;11.80;99.90;;;;;;5158475;27;20035;-76
2022/10/21 01:40:20;;;;;;;47.13;17.90;;;11.80;99.90;;;;;;5139353;27;20055;-76
2022/10/21 01:42:56;;;;;;;45.72;18.13;;;11.90;99.90;;;;;;5157029;27;20039;-75
2022/10/21 01:45:31;;;;;;;52.50;18.42;;;11.90;99.90;;;;;;5138494;27;20062;-74
2022/10/21 01:48:03;;;;;;;46.47;18.13;;;11.90;99.90;;;;;;5138730;27;20054;-76
2022/10/21 01:50:43;;;;;;;48.70;17.90;;;12.00;99.90;;;;;;5138743;27;20065;-75
2022/10/21 01:53:11;;;;;;;48.70;18.20;;;12.00;99.90;;;;;;5138101;27;20099;-76
2022/10/21 01:55:39;;;;;;;49.30;17.35;;;12.10;99.90;;;;;;5156662;27;20053;-75
2022/10/21 01:58:13;;;;;;;42.65;17.90;;;12.20;99.90;;;;;;5138849;27;20125;-76
2022/10/21 02:00:40;;;;;;;49.40;17.55;;;12.30;99.90;;;;;;5138120;27;20115;-75
2022/10/21 02:03:11;;;;;;;48.10;17.23;;;12.30;99.90;;;;;;5156278;27;20113;-75
2022/10/21 02:05:36;;;;;;;49.63;18.95;;;12.30;99.90;;;;;;5156073;27;20081;-74
2022/10/21 02:08:03;;;;;;;51.60;19.08;;;12.40;99.90;;;;;;5138050;27;20141;-75
2022/10/21 02:10:42;;;;;;;51.40;19.35;;;12.40;99.90;;;;;;5137605;27;20058;-76
2022/10/21 02:13:10;;;;;;;57.83;19.80;;;12.40;99.90;;;;;;5137391;27;20393;-76
2022/10/21 02:15:38;;;;;;;52.92;18.52;;;12.50;99.90;;;;;;5154868;27;20050;-74
2022/10/21 02:18:16;;;;;;;55.20;19.58;;;12.50;99.90;;;;;;5136165;27;20047;-73
2022/10/21 02:20:43;;;;;;;58.35;19.45;;;12.60;99.90;;;;;;5154605;27;20054;-75
2022/10/21 02:23:14;;;;;;;52.92;19.42;;;12.60;99.90;;;;;;5135511;27;20486;-75
2022/10/21 02:25:43;;;;;;;55.00;19.40;;;12.60;99.90;;;;;;5136085;27;20055;-73
2022/10/21 02:28:11;;;;;;;58.33;19.83;;;12.60;99.90;;;;;;5154139;27;20519;-74
2022/10/21 02:30:47;;;;;;;56.50;19.60;;;12.60;99.90;;;;;;5154207;27;20058;-77
2022/10/21 02:33:48;;;;;;;56.72;19.73;;;12.70;99.90;;;;;;5155076;27;20068;-75
2022/10/21 02:36:22;;;;;;;58.70;19.25;;;12.70;99.90;;;;;;5155365;27;20046;-77
2022/10/21 02:38:54;;;;;;;58.03;18.15;;;12.70;99.90;;;;;;5142159;27;20390;-80
2022/10/21 02:41:22;;;;;;;58.90;19.50;;;12.80;99.90;;;;;;5134743;27;20053;-76
2022/10/21 02:43:56;;;;;;;64.05;19.20;;;12.80;99.90;;;;;;5135427;27;20049;-79
2022/10/21 02:46:23;;;;;;;55.92;19.52;;;12.80;99.90;;;;;;5135882;27;20121;-76
2022/10/21 02:48:48;;;;;;;55.45;19.63;;;12.80;99.90;;;;;;5136245;27;20099;-78
2022/10/21 02:51:15;;;;;;;53.30;18.90;;;12.70;99.90;;;;;;5136303;27;20054;-77
2022/10/21 02:53:41;;;;;;;57.22;19.23;;;12.70;99.90;;;;;;5153636;27;20049;-77
2022/10/21 02:56:07;;;;;;;59.85;18.73;;;12.70;99.90;;;;;;5135375;27;20058;-77
2022/10/21 02:58:33;;;;;;;54.43;19.83;;;12.70;99.90;;;;;;5118416;27;20046;-77
2022/10/21 03:00:59;;;;;;;59.15;18.75;;;12.70;99.90;;;;;;5153644;27;20043;-76
2022/10/21 03:03:25;;;;;;;70.22;19.85;;;12.60;99.90;;;;;;5153817;27;20431;-76
2022/10/21 03:05:51;;;;;;;309.35;28.50;;;12.60;99.90;;;;;;5153824;27;20071;-81
2022/10/21 03:08:17;;;;;;;75.43;19.67;;;12.60;99.90;;;;;;5153794;27;20051;-80
2022/10/21 03:10:43;;;;;;;71.28;19.08;;;12.50;99.90;;;;;;5153854;27;20038;-76
2022/10/21 03:13:08;;;;;;;55.50;18.05;;;12.50;99.90;;;;;;5153627;27;20038;-76
2022/10/21 03:15:34;;;;;;;63.78;20.13;;;12.40;99.90;;;;;;5135218;27;20038;-76
2022/10/21 03:18:00;;;;;;;60.17;18.42;;;12.30;99.90;;;;;;5135732;27;20126;-77
2022/10/21 03:20:26;;;;;;;84.30;19.48;;;12.30;99.90;;;;;;5134643;27;20039;-78
2022/10/21 03:22:52;;;;;;;60.88;17.90;;;12.20;99.90;;;;;;5138576;27;20195;-80
2022/10/21 03:25:17;;;;;;;54.85;17.67;;;12.10;99.90;;;;;;5157250;27;20051;-78
2022/10/21 03:27:43;;;;;;;693.30;36.80;;;12.10;99.90;;;;;;5157168;27;20054;-77
2022/10/21 03:30:09;;;;;;;76.63;17.90;;;12.10;99.90;;;;;;5138421;27;20103;-76
2022/10/21 03:32:35;;;;;;;99.90;17.25;;;12.00;99.90;;;;;;5157038;27;20085;-76
2022/10/21 03:35:01;;;;;;;57.15;16.13;;;12.00;99.90;;;;;;5157006;27;20043;-75
2022/10/21 03:37:27;;;;;;;68.60;16.17;;;11.90;99.90;;;;;;5138422;27;20103;-75
2022/10/21 03:39:53;;;;;;;112.45;18.50;;;11.90;99.90;;;;;;5156984;27;20038;-81
2022/10/21 03:42:18;;;;;;;74.28;15.80;;;11.90;99.90;;;;;;5121125;27;20125;-77
2022/10/21 03:44:44;;;;;;;87.00;15.93;;;11.90;99.90;;;;;;5157175;27;20523;-76
2022/10/21 03:47:10;;;;;;;157.55;17.85;;;11.90;99.90;;;;;;5138614;27;20042;-77
2022/10/21 03:49:35;;;;;;;78.57;16.02;;;11.90;99.90;;;;;;5138331;27;20453;-77
2022/10/21 03:52:01;;;;;;;38.50;14.60;;;11.90;99.90;;;;;;5138007;27;20078;-77
2022/10/21 03:54:27;;;;;;;39.30;15.07;;;11.90;99.90;;;;;;5156812;27;20437;-77
2022/10/21 03:56:52;;;;;;;43.28;14.20;;;11.90;99.90;;;;;;5120890;27;20125;-79
2022/10/21 03:59:18;;;;;;;57.53;15.15;;;11.90;99.90;;;;;;5137992;27;20420;-78
2022/10/21 04:01:44;;;;;;;42.90;14.38;;;11.90;99.90;;;;;;5156249;27;20065;-76
2022/10/21 04:04:10;;;;;;;38.60;15.07;;;11.90;99.90;;;;;;5138623;27;20043;-76
2022/10/21 04:06:35;;;;;;;36.95;13.98;;;12.00;99.90;;;;;;5137905;27;20114;-76
2022/10/21 04:09:02;;;;;;;51.92;15.38;;;12.00;99.90;;;;;;5156252;27;20051;-75
2022/10/21 04:11:27;;;;;;;40.50;14.95;;;12.00;99.90;;;;;;5157105;27;20363;-77
2022/10/21 04:13:53;;;;;;;46.60;16.35;;;12.00;99.90;;;;;;5156208;27;20125;-77
2022/10/21 04:16:20;;;;;;;47.10;15.90;;;12.00;99.90;;;;;;5103473;27;20047;-77
2022/10/21 04:18:46;;;;;;;;;;;12.00;99.90;;;;;;5156559;27;20065;-77
2022/10/21 04:21:12;;;;;;;47.20;14.93;;;12.00;99.90;;;;;;5155634;27;19919;-76
2022/10/21 04:23:38;;;;;;;50.67;16.70;;;12.10;99.90;;;;;;5155846;27;20062;-75
2022/10/21 04:26:04;;;;;;;49.45;15.40;;;12.10;99.90;;;;;;5120696;27;20054;-76
2022/10/21 04:28:30;;;;;;;48.60;15.50;;;12.10;99.90;;;;;;5156386;27;20106;-78
2022/10/21 04:30:56;;;;;;;58.95;17.00;;;12.20;99.90;;;;;;5137557;27;20106;-76
2022/10/21 04:33:21;;;;;;;45.88;16.80;;;12.20;99.90;;;;;;5137708;27;20050;-76
2022/10/21 04:35:47;;;;;;;47.72;16.17;;;12.30;99.90;;;;;;5155820;27;20542;-77
2022/10/21 04:38:13;;;;;;;71.03;18.65;;;12.30;99.90;;;;;;5137058;27;20042;-76
2022/10/21 04:40:39;;;;;;;54.55;16.85;;;12.40;99.90;;;;;;5155517;27;20099;-76
2022/10/21 04:43:04;;;;;;;53.63;16.55;;;12.40;99.90;;;;;;5137534;27;20049;-78
2022/10/21 04:45:30;;;;;;;51.15;16.63;;;12.40;99.90;;;;;;5136859;27;20399;-77
2022/10/21 04:47:56;;;;;;;55.00;17.02;;;12.50;99.90;;;;;;5155531;27;20047;-75
2022/10/21 04:50:22;;;;;;;54.30;17.70;;;12.50;99.90;;;;;;5155621;27;20094;-76
2022/10/21 04:52:48;;;;;;;54.83;17.67;;;12.50;99.90;;;;;;5155448;27;20047;-76
2022/10/21 04:55:13;;;;;;;52.80;17.67;;;12.60;99.90;;;;;;5155286;27;20082;-76
2022/10/21 04:57:39;;;;;;;49.97;17.10;;;12.70;99.90;;;;;;5155435;27;20042;-76
2022/10/21 05:00:06;;;;;;;50.40;17.92;;;12.60;99.90;;;;;;5120469;27;20104;-77
2022/10/21 05:02:32;;;;;;;;;;;12.70;99.90;;;;;;5155621;27;20386;-75
2022/10/21 05:04:58;;;;;;;44.70;16.90;;;12.60;99.90;;;;;;5155280;27;19919;-75
2022/10/21 05:07:23;;;;;;;53.78;18.00;;;12.60;99.90;;;;;;5119496;27;20034;-76
2022/10/21 05:09:49;;;;;;;54.58;18.55;;;12.60;99.90;;;;;;5155061;27;20046;-74
2022/10/21 05:12:15;;;;;;;53.80;17.65;;;12.60;99.90;;;;;;5155637;27;20117;-75
2022/10/21 05:14:40;;;;;;;52.53;17.50;;;12.60;99.90;;;;;;5136498;27;20049;-76
2022/10/21 05:17:06;;;;;;;59.00;18.83;;;12.50;99.90;;;;;;5155072;27;20055;-81
2022/10/21 05:19:32;;;;;;;56.85;18.45;;;12.50;99.90;;;;;;5154923;27;20471;-78
2022/10/21 05:21:58;;;;;;;53.83;19.63;;;12.50;99.90;;;;;;5154782;27;20038;-77
2022/10/21 05:24:23;;;;;;;61.28;19.30;;;12.50;99.90;;;;;;5154574;27;20054;-75
2022/10/21 05:26:50;;;;;;;60.47;18.50;;;12.40;99.90;;;;;;5154733;27;20063;-76
2022/10/21 05:29:16;;;;;;;62.45;20.13;;;12.40;99.90;;;;;;5155181;27;20054;-75
2022/10/21 05:31:42;;;;;;;55.60;18.50;;;12.40;99.90;;;;;;5154576;27;20546;-76
2022/10/21 05:34:08;;;;;;;58.38;19.33;;;12.40;99.90;;;;;;5136304;27;20050;-81
2022/10/21 05:36:34;;;;;;;54.13;18.98;;;12.30;99.90;;;;;;5136424;27;20305;-75
2022/10/21 05:38:59;;;;;;;56.40;18.40;;;12.30;99.90;;;;;;5154637;27;20047;-76
2022/10/21 05:41:25;;;;;;;58.92;19.38;;;12.40;99.90;;;;;;5154398;27;20110;-74
2022/10/21 05:43:51;;;;;;;61.80;19.25;;;12.40;99.90;;;;;;5135765;27;20125;-75
2022/10/21 05:46:18;;;;;;;63.05;20.05;;;12.40;99.90;;;;;;5154133;27;20343;-77
2022/10/21 05:48:43;;;;;;;65.45;19.27;;;12.30;99.90;;;;;;5154400;27;20087;-76
2022/10/21 05:51:09;;;;;;;65.22;19.05;;;12.30;99.90;;;;;;5154306;27;20034;-82
2022/10/21 05:53:35;;;;;;;55.92;18.38;;;12.20;99.90;;;;;;5118286;27;20125;-76
2022/10/21 05:56:04;;;;;;;63.50;19.15;;;12.20;99.90;;;;;;5118637;27;20058;-77
2022/10/21 05:58:30;;;;;;;59.47;18.65;;;12.10;99.90;;;;;;5154896;27;20129;-75
2022/10/21 06:00:57;;;;;;;60.95;19.42;;;12.10;99.90;;;;;;5154828;27;20047;-78
2022/10/21 06:03:28;;;;;;;63.85;19.60;;;12.10;99.90;;;;;;5154124;27;20099;-80
2022/10/21 06:05:55;;;;;;;61.47;18.60;;;12.10;99.90;;;;;;5136244;27;20049;-77
2022/10/21 06:08:24;;;;;;;56.75;18.25;;;12.10;99.90;;;;;;5154208;27;20050;-76
2022/10/21 06:11:06;;;;;;;60.50;19.75;;;12.10;99.90;;;;;;5135814;27;20439;-76
2022/10/21 06:13:32;;;;;;;63.10;19.50;;;12.10;99.90;;;;;;5135704;27;20050;-76
2022/10/21 06:15:58;;;;;;;56.80;18.50;;;12.10;99.90;;;;;;5135581;27;20095;-75
2022/10/21 06:18:24;;;;;;;66.05;19.90;;;12.10;99.90;;;;;;5135897;27;20280;-76
2022/10/21 06:20:50;;;;;;;60.13;19.47;;;12.20;99.90;;;;;;5154349;27;20038;-75
2022/10/21 06:23:16;;;;;;;57.92;19.27;;;12.10;99.90;;;;;;5153949;27;20050;-76
2022/10/21 06:25:52;;;;;;;66.20;19.90;;;12.10;99.90;;;;;;5133313;27;20077;-76
2022/10/21 06:28:18;;;;;;;61.95;18.67;;;12.10;99.90;;;;;;5132454;28;20131;-76
2022/10/21 06:30:45;;;;;;;57.42;18.80;;;12.00;99.90;;;;;;5132676;28;20075;-76
2022/10/21 06:33:11;;;;;;;59.80;19.35;;;12.00;99.90;;;;;;5133892;28;20043;-76
2022/10/21 06:35:36;;;;;;;63.25;19.08;;;12.00;99.90;;;;;;5115487;28;20046;-79
2022/10/21 06:38:02;;;;;;;61.30;18.63;;;11.90;99.90;;;;;;5115252;28;20046;-75
2022/10/21 06:40:28;;;;;;;56.25;19.58;;;11.90;99.90;;;;;;5131706;28;20146;-76
2022/10/21 06:42:54;;;;;;;60.33;18.83;;;11.90;99.90;;;;;;5114957;28;20094;-75
2022/10/21 06:45:20;;;;;;;64.13;19.23;;;11.90;99.90;;;;;;5132930;28;20359;-76
2022/10/21 06:47:45;;;;;;;59.10;19.63;;;11.90;99.90;;;;;;5132011;28;20047;-76
2022/10/21 06:50:12;;;;;;;58.55;18.65;;;11.90;99.90;;;;;;5133049;28;20055;-76
2022/10/21 06:52:39;;;;;;;60.15;18.60;;;12.00;99.90;;;;;;5132232;28;20043;-76
2022/10/21 06:55:05;;;;;;;58.53;19.25;;;12.00;99.90;;;;;;5115389;28;20059;-76
2022/10/21 06:57:31;;;;;;;57.38;18.42;;;12.00;99.90;;;;;;5135134;27;20050;-75
2022/10/21 06:59:57;;;;;;;63.67;19.25;;;12.00;99.90;;;;;;5136790;27;20096;-76
2022/10/21 07:02:23;;;;;;;59.25;18.50;;;12.10;99.90;;;;;;5135630;27;20039;-76
2022/10/21 07:04:51;;;;;;;58.38;18.95;;;12.10;99.90;;;;;;5135569;27;20475;-76
2022/10/21 07:07:17;;;;;;;60.42;19.42;;;12.20;99.90;;;;;;5135749;27;20123;-76
2022/10/21 07:09:43;;;;;;;56.50;18.52;;;12.20;99.90;;;;;;5118735;27;20043;-75
2022/10/21 07:12:10;;;;;;;63.58;19.08;;;12.30;99.90;;;;;;5137051;27;20043;-75
2022/10/21 07:14:36;;;;;;;58.40;18.17;;;12.20;99.90;;;;;;5136949;27;20050;-80
2022/10/21 07:17:01;;;;;;;59.47;18.27;;;12.20;99.90;;;;;;5136457;27;20047;-76
2022/10/21 07:19:27;;;;;;;59.65;18.90;;;12.30;99.90;;;;;;5137313;27;20042;-76
2022/10/21 07:21:53;;;;;;;55.35;18.17;;;12.30;99.90;;;;;;5136768;27;20042;-75
2022/10/21 07:24:19;;;;;;;57.72;18.60;;;12.30;99.90;;;;;;5118056;27;20459;-75
2022/10/21 07:26:45;;;;;;;59.30;18.42;;;12.30;99.90;;;;;;5136417;27;20066;-75
2022/10/21 07:29:11;;;;;;;55.15;18.60;;;12.40;99.90;;;;;;5136543;27;20039;-75
2022/10/21 07:31:38;;;;;;;52.90;18.08;;;12.40;99.90;;;;;;5136633;27;20494;-76
2022/10/21 07:34:07;;;;;;;53.65;18.10;;;12.50;99.90;;;;;;5135387;27;20094;-76
2022/10/21 07:36:37;;;;;;;55.88;17.48;;;12.60;99.90;;;;;;5136749;27;20042;-76
2022/10/21 07:39:06;;;;;;;48.60;17.80;;;12.60;99.90;;;;;;5136280;27;20051;-76
2022/10/21 07:41:36;;;;;;;53.17;18.35;;;12.70;99.90;;;;;;5134946;27;20047;-76
2022/10/21 07:44:03;;;;;;;51.33;18.50;;;12.80;99.90;;;;;;5135172;27;20047;-75
2022/10/21 07:46:28;;;;;;;53.88;18.25;;;12.90;99.90;;;;;;5136078;27;20103;-75
2022/10/21 07:48:54;;;;;;;45.58;17.70;;;13.00;99.90;;;;;;5135143;27;20044;-76
2022/10/21 07:51:23;;;;;;;49.97;18.10;;;13.10;99.90;;;;;;5136173;27;20047;-75
2022/10/21 07:53:50;;;;;;;49.80;17.73;;;13.20;99.90;;;;;;5135160;27;20039;-75
2022/10/21 07:56:22;;;;;;;47.72;17.92;;;13.30;99.90;;;;;;5135875;27;20116;-77
2022/10/21 07:58:50;;;;;;;44.30;17.73;;;13.50;99.90;;;;;;5136311;27;20065;-76
2022/10/21 08:01:16;;;;;;;;;;;13.60;99.90;;;;;;5117903;27;20035;-75
2022/10/21 08:03:42;;;;;;;44.30;16.40;;;13.70;99.90;;;;;;5136504;27;19942;-74
2022/10/21 08:06:08;;;;;;;38.13;16.55;;;13.80;99.90;;;;;;5117529;27;20455;-74
2022/10/21 08:08:35;;;;;;;41.15;17.70;;;13.80;99.90;;;;;;5134969;27;20090;-78
2022/10/21 08:11:01;;;;;;;41.50;17.07;;;14.00;99.90;;;;;;5134798;27;20078;-78
2022/10/21 08:13:27;;;;;;;41.63;16.85;;;14.00;99.90;;;;;;5117859;27;20300;-84
2022/10/21 08:15:53;;;;;;;41.80;17.50;;;14.10;99.90;;;;;;5134256;27;20043;-76
2022/10/21 08:18:20;;;;;;;39.85;16.95;;;14.20;99.90;;;;;;5117801;27;20422;-76
2022/10/21 08:20:47;;;;;;;40.47;16.98;;;14.30;99.90;;;;;;5117410;27;20058;-76
2022/10/21 08:23:15;;;;;;;37.65;16.60;;;14.40;99.90;;;;;;5117689;27;20054;-75
2022/10/21 08:25:52;;;;;;;35.47;16.15;;;14.40;99.90;;;;;;5135347;27;20060;-78
2022/10/21 08:28:19;;;;;;;39.85;16.15;;;14.40;99.90;;;;;;5135406;27;20051;-77
2022/10/21 08:30:45;;;;;;;32.80;15.45;;;14.40;99.90;;;;;;5134092;27;20039;-76
2022/10/21 08:33:11;;;;;;;34.53;15.80;;;14.50;99.90;;;;;;5135052;27;20047;-76
2022/10/21 08:35:38;;;;;;;33.80;15.25;;;14.50;99.90;;;;;;5134134;27;20511;-76
2022/10/21 08:38:05;;;;;;;31.38;15.07;;;14.50;99.90;;;;;;5134172;27;20047;-77
2022/10/21 08:40:40;;;;;;;30.85;14.93;;;14.40;99.90;;;;;;5117038;27;20047;-83
2022/10/21 08:43:27;;;;;;;32.33;14.98;;;14.40;99.90;;;;;;5135590;27;20103;-77
2022/10/21 08:46:08;;;;;;;33.10;15.80;;;14.40;99.90;;;;;;5133893;27;20051;-75
2022/10/21 08:48:44;;;;;;;30.70;14.40;;;14.50;99.90;;;;;;5134984;27;20123;-75
2022/10/21 08:51:21;;;;;;;33.88;14.90;;;14.50;99.90;;;;;;5134514;27;20111;-76
2022/10/21 08:53:49;;;;;;;29.48;13.95;;;14.50;99.90;;;;;;5133792;27;20057;-76
2022/10/21 08:56:16;;;;;;;31.98;13.65;;;14.50;99.90;;;;;;5116604;27;20107;-77
2022/10/21 08:58:45;;;;;;;28.50;14.82;;;14.60;99.90;;;;;;5117223;27;20047;-76
2022/10/21 09:01:17;;;;;;;29.67;14.07;;;14.70;99.90;;;;;;5116237;27;20047;-78
2022/10/21 09:03:53;;;;;;;26.73;13.82;;;14.80;99.90;;;;;;5134749;27;20039;-79
2022/10/21 09:06:23;;;;;;;26.90;13.88;;;14.80;99.90;;;;;;5134208;27;20560;-78
2022/10/21 09:08:57;;;;;;;30.65;13.75;;;14.80;99.90;;;;;;5135365;27;20434;-77
2022/10/21 09:11:42;;;;;;;30.27;13.20;;;14.80;99.90;;;;;;5134740;27;20035;-78
2022/10/21 09:14:45;;;;;;;29.70;12.80;;;14.90;99.90;;;;;;5133606;27;20507;-78
2022/10/21 09:17:33;;;;;;;24.30;12.32;;;15.00;99.90;;;;;;5116928;27;20096;-78
2022/10/21 09:20:21;;;;;;;26.60;12.45;;;15.10;99.90;;;;;;5133739;27;20078;-78
2022/10/21 09:23:29;;;;;;;25.13;12.40;;;15.10;99.90;;;;;;5134742;27;20043;-77
2022/10/21 09:26:01;;;;;;;21.63;12.25;;;15.20;99.90;;;;;;5106376;27;20425;-77
2022/10/21 09:28:29;;;;;;;29.63;11.80;;;15.30;99.90;;;;;;5133406;27;20093;-81
2022/10/21 09:30:59;;;;;;;24.75;11.45;;;15.40;99.90;;;;;;5134110;27;20383;-77
2022/10/21 09:33:30;;;;;;;26.70;12.52;;;15.40;99.90;;;;;;5134896;27;20078;-77
2022/10/21 09:36:10;;;;;;;22.13;11.32;;;15.40;99.90;;;;;;5134918;27;20389;-78
2022/10/21 09:38:57;;;;;;;24.65;10.25;;;15.50;99.90;;;;;;5134221;27;20086;-83
2022/10/21 09:41:28;;;;;;;19.77;10.27;;;15.50;99.90;;;;;;5134145;27;20471;-77
2022/10/21 09:43:55;;;;;;;26.25;10.52;;;15.50;99.90;;;;;;5134178;27;20085;-76
2022/10/21 09:46:21;;;;;;;22.52;9.63;;;15.60;99.90;;;;;;5115776;27;20118;-77
2022/10/21 09:48:52;;;;;;;22.77;9.65;;;15.60;99.90;;;;;;5133548;27;20474;-79
2022/10/21 09:51:32;;;;;;;21.40;9.90;;;15.60;99.90;;;;;;5132942;27;20050;-78
2022/10/21 09:54:13;;;;;;;19.35;9.13;;;15.70;99.90;;;;;;5133677;27;20467;-76
2022/10/21 09:56:59;;;;;;;20.58;9.23;;;15.70;99.90;;;;;;5134273;27;20111;-76
2022/10/21 09:59:25;;;;;;;20.25;9.18;;;15.80;99.90;;;;;;5133366;27;20109;-79
2022/10/21 10:01:51;;;;;;;18.17;8.93;;;15.80;99.90;;;;;;5133533;27;20499;-75
2022/10/21 10:04:44;;;;;;;17.70;8.63;;;15.90;99.90;;;;;;5133776;27;20155;-78
2022/10/21 10:07:26;;;;;;;18.33;8.57;;;15.90;99.90;;;;;;5110815;27;20054;-76
2022/10/21 10:09:51;;;;;;;16.38;8.48;;;16.00;99.90;;;;;;5131651;27;20483;-75
2022/10/21 10:12:23;;;;;;;19.60;8.75;;;16.00;99.90;;;;;;5115405;27;20122;-77
2022/10/21 10:14:49;;;;;;;19.98;8.95;;;16.10;99.90;;;;;;5131921;27;20548;-75
2022/10/21 10:17:35;;;;;;;15.93;8.55;;;16.10;99.90;;;;;;5132142;27;20038;-77
2022/10/21 10:20:07;;;;;;;23.25;8.95;;;16.20;99.90;;;;;;5133896;27;20043;-77
2022/10/21 10:22:34;;;;;;;19.27;8.00;;;16.20;99.90;;;;;;5133654;27;20089;-76
2022/10/21 10:25:06;;;;;;;;;;;16.20;99.90;;;;;;5115283;28;20106;-76
2022/10/21 10:27:32;;;;;;;16.85;8.13;;;16.20;99.90;;;;;;5133405;28;19919;-75
2022/10/21 10:30:00;;;;;;;17.98;7.78;;;16.20;99.90;;;;;;5116539;27;20058;-76
2022/10/21 10:32:30;;;;;;;21.90;8.57;;;16.20;99.90;;;;;;5137643;27;20046;-78
2022/10/21 10:34:59;;;;;;;15.80;7.80;;;16.30;99.90;;;;;;5119343;27;20494;-76
2022/10/21 10:37:33;;;;;;;22.35;8.70;;;16.30;99.90;;;;;;5137642;27;20051;-77
2022/10/21 10:40:01;;;;;;;21.67;8.57;;;16.30;99.90;;;;;;5136431;27;20097;-76
2022/10/21 10:42:32;;;;;;;18.48;8.38;;;16.30;99.90;;;;;;5118941;27;20039;-76
2022/10/21 10:45:11;;;;;;;22.92;9.30;;;16.50;99.90;;;;;;5137466;27;20043;-76
2022/10/21 10:47:52;;;;;;;17.60;8.82;;;16.50;99.90;;;;;;5138054;27;20050;-76
2022/10/21 10:50:36;;;;;;;18.27;8.90;;;16.50;99.90;;;;;;5137511;27;20486;-75
2022/10/21 10:53:22;;;;;;;20.88;8.07;;;16.80;99.90;;;;;;5136024;27;20139;-75
2022/10/21 10:55:57;;;;;;;17.85;8.88;;;16.50;99.90;;;;;;5137366;27;20070;-75
2022/10/21 10:58:27;;;;;;;19.73;8.73;;;16.90;99.90;;;;;;5136562;27;20070;-78
2022/10/21 11:00:57;;;;;;;19.58;8.55;;;16.60;99.90;;;;;;5136747;27;20043;-74
2022/10/21 11:03:30;;;;;;;19.48;8.80;;;16.70;99.90;;;;;;5102779;27;20561;-75
2022/10/21 11:06:11;;;;;;;20.35;8.70;;;;;;;;;;5137099;27;20047;-77
2022/10/21 11:08:46;;;;;;;19.17;8.30;;;16.70;99.90;;;;;;5136838;27;20554;-77
2022/10/21 11:11:17;;;;;;;19.60;8.48;;;;;;;;;;5137529;27;20079;-77
2022/10/21 11:13:43;;;;;;;13.82;8.23;;;;;;;;;;5137076;27;20043;-84
2022/10/21 11:16:33;;;;;;;18.03;8.57;;;16.80;99.90;;;;;;5137038;27;20050;-76
2022/10/21 11:19:25;;;;;;;16.55;7.30;;;16.70;99.90;;;;;;5135937;27;20047;-79
2022/10/21 11:22:00;;;;;;;17.98;7.35;;;16.80;99.90;;;;;;5136948;27;20046;-77
2022/10/21 11:24:44;;;;;;;17.05;6.95;;;16.80;99.90;;;;;;5147185;27;20090;-78
2022/10/21 11:27:29;;;;;;;19.25;7.45;;;16.80;99.90;;;;;;5158033;27;20050;-77
2022/10/21 11:30:20;;;;;;;14.43;6.78;;;16.90;99.90;;;;;;5139385;27;20126;-77
2022/10/21 11:33:22;;;;;;;17.40;6.93;;;16.90;99.90;;;;;;5158051;27;20363;-87
2022/10/21 11:35:57;;;;;;;16.17;7.47;;;16.90;99.90;;;;;;5157445;27;20102;-77
2022/10/21 11:38:24;;;;;;;17.13;7.07;;;16.80;99.90;;;;;;5158066;27;20077;-76
2022/10/21 11:41:03;;;;;;;19.40;7.43;;;16.80;99.90;;;;;;5157263;27;20134;-77
2022/10/21 11:43:59;;;;;;;19.77;7.60;;;16.90;99.90;;;;;;5137678;27;20043;-77
2022/10/21 11:46:51;;;;;;;16.55;7.68;;;16.80;99.90;;;;;;5139101;27;20043;-83
2022/10/21 11:49:49;;;;;;;15.60;7.03;;;16.90;99.90;;;;;;5100076;27;20054;-79
2022/10/21 11:52:14;;;;;;;19.33;7.25;;;16.80;99.90;;;;;;5157916;27;20210;-76
2022/10/21 11:54:49;;;;;;;14.88;7.07;;;17.00;99.90;;;;;;5156599;27;20043;-77
2022/10/21 11:57:25;;;;;;;13.75;7.13;;;17.10;99.90;;;;;;5138783;27;20046;-77
2022/10/21 12:00:09;;;;;;;12.03;6.60;;;17.10;99.90;;;;;;5137868;27;20455;-79
2022/10/21 12:03:04;;;;;;;15.20;6.53;;;17.10;99.90;;;;;;5156779;27;20050;-76
2022/10/21 12:06:00;;;;;;;15.35;5.97;;;17.10;99.90;;;;;;5157010;27;20454;-79
2022/10/21 12:08:38;;;;;;;15.25;6.45;;;17.10;99.90;;;;;;5156961;27;20479;-79
2022/10/21 12:11:20;;;;;;;16.42;5.68;;;17.10;99.90;;;;;;5137770;27;20405;-75
2022/10/21 12:14:21;;;;;;;15.95;5.75;;;17.10;99.90;;;;;;5138451;27;20051;-75
2022/10/21 12:16:48;;;;;;;13.95;5.53;;;17.10;99.90;;;;;;5157306;27;20042;-77
2022/10/21 12:19:15;;;;;;;13.88;5.53;;;17.10;99.90;;;;;;5157204;27;20039;-78
2022/10/21 12:21:44;;;;;;;14.23;5.60;;;17.00;99.90;;;;;;5137964;27;20042;-78
2022/10/21 12:24:19;;;;;;;14.60;5.22;;;16.90;99.90;;;;;;5137476;27;20134;-77
2022/10/21 12:26:55;;;;;;;13.63;5.30;;;17.00;99.90;;;;;;5156674;27;20498;-76
2022/10/21 12:29:42;;;;;;;15.75;5.50;;;16.90;99.90;;;;;;5156510;27;20047;-77
2022/10/21 12:32:39;;;;;;;12.38;5.55;;;17.00;99.90;;;;;;5156568;27;20479;-77
2022/10/21 12:35:10;;;;;;;15.05;5.30;;;17.10;99.90;;;;;;5154613;27;20047;-78
2022/10/21 12:38:04;;;;;;;11.45;5.30;;;17.10;99.90;;;;;;5156431;27;20075;-78
2022/10/21 12:40:31;;;;;;;10.60;4.80;;;17.20;99.90;;;;;;5138320;27;20090;-78
2022/10/21 12:43:02;;;;;;;14.95;5.95;;;17.20;99.90;;;;;;5156542;27;20039;-76
2022/10/21 12:45:31;;;;;;;14.70;5.47;;;17.20;99.90;;;;;;5137558;27;20082;-77
2022/10/21 12:47:58;;;;;;;13.88;5.60;;;17.20;99.90;;;;;;5137358;27;20521;-77
2022/10/21 12:50:30;;;;;;;12.65;5.35;;;17.20;99.90;;;;;;5137725;27;20394;-77